sensor_id;sensor_type;location;lat;lon;timestamp;P1;durP1;ratioP1;P2;durP2;ratioP2
72635;SDS011;60679;48.888;15.544;2022-11-25T00:01:20;2.30;;;0.63;;
72635;SDS011;60679;48.888;15.544;2022-11-25T00:03:47;2.08;;;0.38;;
72635;SDS011;60679;48.888;15.544;2022-11-25T00:06:17;2.13;;;0.50;;
72635;SDS011;60679;48.888;15.544;2022-11-25T00:08:43;2.30;;;0.40;;
72635;SDS011;60679;48.888;15.544;2022-11-25T00:11:11;2.33;;;0.60;;
72635;SDS011;60679;48.888;15.544;2022-11-25T00:13:37;2.28;;;0.50;;
72635;SDS011;60679;48.888;15.544;2022-11-25T00:16:05;2.50;;;0.50;;
72635;SDS011;60679;48.888;15.544;2022-11-25T00:18:32;2.67;;;0.80;;
72635;SDS011;60679;48.888;15.544;2022-11-25T00:21:03;2.10;;;0.30;;
72635;SDS011;60679;48.888;15.544;2022-11-25T00:23:30;1.80;;;0.30;;
72635;SDS011;60679;48.888;15.544;2022-11-25T00:25:56;2.10;;;0.40;;
72635;SDS011;60679;48.888;15.544;2022-11-25T00:28:21;2.47;;;0.60;;
72635;SDS011;60679;48.888;15.544;2022-11-25T00:30:47;2.30;;;0.40;;
72635;SDS011;60679;48.888;15.544;2022-11-25T00:33:12;2.10;;;0.30;;
72635;SDS011;60679;48.888;15.544;2022-11-25T00:35:37;2.20;;;0.40;;
72635;SDS011;60679;48.888;15.544;2022-11-25T00:38:03;2.20;;;0.53;;
72635;SDS011;60679;48.888;15.544;2022-11-25T00:40:28;2.30;;;0.50;;
72635;SDS011;60679;48.888;15.544;2022-11-25T00:42:53;2.88;;;0.95;;
72635;SDS011;60679;48.888;15.544;2022-11-25T00:45:37;3.53;;;0.90;;
72635;SDS011;60679;48.888;15.544;2022-11-25T00:48:03;2.72;;;0.82;;
72635;SDS011;60679;48.888;15.544;2022-11-25T00:50:28;2.53;;;0.52;;
72635;SDS011;60679;48.888;15.544;2022-11-25T00:52:53;2.17;;;0.40;;
72635;SDS011;60679;48.888;15.544;2022-11-25T00:55:19;2.03;;;0.40;;
72635;SDS011;60679;48.888;15.544;2022-11-25T00:57:44;2.20;;;0.30;;
72635;SDS011;60679;48.888;15.544;2022-11-25T01:00:10;2.20;;;0.50;;
72635;SDS011;60679;48.888;15.544;2022-11-25T01:02:36;2.40;;;0.70;;
72635;SDS011;60679;48.888;15.544;2022-11-25T01:05:01;2.23;;;0.47;;
72635;SDS011;60679;48.888;15.544;2022-11-25T01:07:27;2.10;;;0.45;;
72635;SDS011;60679;48.888;15.544;2022-11-25T01:09:52;2.00;;;0.50;;
72635;SDS011;60679;48.888;15.544;2022-11-25T01:12:18;2.80;;;1.20;;
72635;SDS011;60679;48.888;15.544;2022-11-25T01:14:43;3.17;;;1.10;;
72635;SDS011;60679;48.888;15.544;2022-11-25T01:17:08;1.87;;;0.30;;
72635;SDS011;60679;48.888;15.544;2022-11-25T01:19:34;2.23;;;0.50;;
72635;SDS011;60679;48.888;15.544;2022-11-25T01:22:04;3.00;;;1.15;;
72635;SDS011;60679;48.888;15.544;2022-11-25T01:24:29;2.27;;;0.53;;
72635;SDS011;60679;48.888;15.544;2022-11-25T01:26:55;2.75;;;0.95;;
72635;SDS011;60679;48.888;15.544;2022-11-25T01:29:20;1.93;;;0.40;;
72635;SDS011;60679;48.888;15.544;2022-11-25T01:31:45;2.30;;;0.60;;
72635;SDS011;60679;48.888;15.544;2022-11-25T01:34:16;2.13;;;0.50;;
72635;SDS011;60679;48.888;15.544;2022-11-25T01:36:44;2.40;;;0.65;;
72635;SDS011;60679;48.888;15.544;2022-11-25T01:39:28;2.10;;;0.43;;
72635;SDS011;60679;48.888;15.544;2022-11-25T01:41:53;2.00;;;0.40;;
72635;SDS011;60679;48.888;15.544;2022-11-25T01:44:20;2.00;;;0.40;;
72635;SDS011;60679;48.888;15.544;2022-11-25T01:51:51;2.58;;;0.60;;
72635;SDS011;60679;48.888;15.544;2022-11-25T01:54:22;2.55;;;0.60;;
72635;SDS011;60679;48.888;15.544;2022-11-25T01:56:52;2.05;;;0.30;;
72635;SDS011;60679;48.888;15.544;2022-11-25T01:59:25;2.85;;;0.68;;
72635;SDS011;60679;48.888;15.544;2022-11-25T02:01:53;1.90;;;0.33;;
72635;SDS011;60679;48.888;15.544;2022-11-25T02:04:21;2.10;;;0.40;;
72635;SDS011;60679;48.888;15.544;2022-11-25T02:06:51;2.40;;;0.63;;
72635;SDS011;60679;48.888;15.544;2022-11-25T02:09:21;2.30;;;0.77;;
72635;SDS011;60679;48.888;15.544;2022-11-25T02:11:47;1.87;;;0.40;;
72635;SDS011;60679;48.888;15.544;2022-11-25T02:14:13;2.22;;;0.43;;
72635;SDS011;60679;48.888;15.544;2022-11-25T02:16:42;2.35;;;0.55;;
72635;SDS011;60679;48.888;15.544;2022-11-25T02:19:10;2.30;;;0.50;;
72635;SDS011;60679;48.888;15.544;2022-11-25T02:21:48;4.57;;;1.30;;
72635;SDS011;60679;48.888;15.544;2022-11-25T02:24:28;2.30;;;0.60;;
72635;SDS011;60679;48.888;15.544;2022-11-25T02:27:04;2.78;;;1.15;;
72635;SDS011;60679;48.888;15.544;2022-11-25T02:29:29;2.25;;;0.43;;
72635;SDS011;60679;48.888;15.544;2022-11-25T02:31:56;2.10;;;0.40;;
72635;SDS011;60679;48.888;15.544;2022-11-25T02:34:22;1.70;;;0.30;;
72635;SDS011;60679;48.888;15.544;2022-11-25T02:36:48;2.77;;;0.80;;
72635;SDS011;60679;48.888;15.544;2022-11-25T02:39:14;2.15;;;0.50;;
72635;SDS011;60679;48.888;15.544;2022-11-25T02:41:43;2.60;;;0.73;;
72635;SDS011;60679;48.888;15.544;2022-11-25T02:44:14;2.28;;;0.52;;
72635;SDS011;60679;48.888;15.544;2022-11-25T02:46:39;2.10;;;0.37;;
72635;SDS011;60679;48.888;15.544;2022-11-25T02:49:05;2.67;;;0.77;;
72635;SDS011;60679;48.888;15.544;2022-11-25T02:51:31;2.47;;;0.50;;
72635;SDS011;60679;48.888;15.544;2022-11-25T02:53:57;2.03;;;0.30;;
72635;SDS011;60679;48.888;15.544;2022-11-25T02:56:25;2.13;;;0.40;;
72635;SDS011;60679;48.888;15.544;2022-11-25T02:58:53;1.90;;;0.30;;
72635;SDS011;60679;48.888;15.544;2022-11-25T03:01:18;1.75;;;0.30;;
72635;SDS011;60679;48.888;15.544;2022-11-25T03:03:44;3.43;;;1.23;;
72635;SDS011;60679;48.888;15.544;2022-11-25T03:06:10;2.50;;;0.63;;
72635;SDS011;60679;48.888;15.544;2022-11-25T03:08:38;2.10;;;0.30;;
72635;SDS011;60679;48.888;15.544;2022-11-25T03:11:04;2.10;;;0.43;;
72635;SDS011;60679;48.888;15.544;2022-11-25T03:13:30;2.30;;;0.50;;
72635;SDS011;60679;48.888;15.544;2022-11-25T03:15:56;2.38;;;0.65;;
72635;SDS011;60679;48.888;15.544;2022-11-25T03:18:21;2.57;;;0.63;;
72635;SDS011;60679;48.888;15.544;2022-11-25T03:20:50;2.42;;;0.60;;
72635;SDS011;60679;48.888;15.544;2022-11-25T03:23:16;2.10;;;0.57;;
72635;SDS011;60679;48.888;15.544;2022-11-25T03:25:42;2.63;;;0.60;;
72635;SDS011;60679;48.888;15.544;2022-11-25T03:28:07;2.40;;;0.50;;
72635;SDS011;60679;48.888;15.544;2022-11-25T03:30:33;2.43;;;0.70;;
72635;SDS011;60679;48.888;15.544;2022-11-25T03:32:58;2.00;;;0.40;;
72635;SDS011;60679;48.888;15.544;2022-11-25T03:35:24;2.15;;;0.63;;
72635;SDS011;60679;48.888;15.544;2022-11-25T03:37:49;2.30;;;0.50;;
72635;SDS011;60679;48.888;15.544;2022-11-25T03:40:15;2.00;;;0.30;;
72635;SDS011;60679;48.888;15.544;2022-11-25T03:42:41;1.90;;;0.30;;
72635;SDS011;60679;48.888;15.544;2022-11-25T03:45:08;1.88;;;0.30;;
72635;SDS011;60679;48.888;15.544;2022-11-25T03:47:36;2.22;;;0.40;;
72635;SDS011;60679;48.888;15.544;2022-11-25T03:50:02;2.27;;;0.40;;
72635;SDS011;60679;48.888;15.544;2022-11-25T03:52:28;2.63;;;0.63;;
72635;SDS011;60679;48.888;15.544;2022-11-25T03:54:54;2.50;;;0.40;;
72635;SDS011;60679;48.888;15.544;2022-11-25T03:57:19;2.27;;;0.50;;
72635;SDS011;60679;48.888;15.544;2022-11-25T03:59:44;2.38;;;0.47;;
72635;SDS011;60679;48.888;15.544;2022-11-25T04:02:10;2.13;;;0.33;;
72635;SDS011;60679;48.888;15.544;2022-11-25T04:04:35;2.57;;;0.70;;
72635;SDS011;60679;48.888;15.544;2022-11-25T04:07:01;2.10;;;0.40;;
72635;SDS011;60679;48.888;15.544;2022-11-25T04:09:26;17.13;;;1.77;;
72635;SDS011;60679;48.888;15.544;2022-11-25T04:11:52;1.95;;;0.30;;
72635;SDS011;60679;48.888;15.544;2022-11-25T04:14:36;2.50;;;0.87;;
72635;SDS011;60679;48.888;15.544;2022-11-25T04:17:01;2.85;;;0.85;;
72635;SDS011;60679;48.888;15.544;2022-11-25T04:19:27;5.77;;;1.13;;
72635;SDS011;60679;48.888;15.544;2022-11-25T04:21:52;3.93;;;1.70;;
72635;SDS011;60679;48.888;15.544;2022-11-25T04:24:18;2.58;;;0.82;;
72635;SDS011;60679;48.888;15.544;2022-11-25T04:26:44;2.92;;;0.88;;
72635;SDS011;60679;48.888;15.544;2022-11-25T04:29:10;2.40;;;0.50;;
72635;SDS011;60679;48.888;15.544;2022-11-25T04:31:35;2.45;;;0.82;;
72635;SDS011;60679;48.888;15.544;2022-11-25T04:34:02;2.20;;;0.47;;
72635;SDS011;60679;48.888;15.544;2022-11-25T04:36:29;2.33;;;0.52;;
72635;SDS011;60679;48.888;15.544;2022-11-25T04:38:54;2.10;;;0.47;;
72635;SDS011;60679;48.888;15.544;2022-11-25T04:41:20;2.53;;;0.80;;
72635;SDS011;60679;48.888;15.544;2022-11-25T04:43:45;2.30;;;0.50;;
72635;SDS011;60679;48.888;15.544;2022-11-25T04:46:22;2.40;;;0.50;;
72635;SDS011;60679;48.888;15.544;2022-11-25T04:48:52;1.90;;;0.38;;
72635;SDS011;60679;48.888;15.544;2022-11-25T04:51:17;2.10;;;0.40;;
72635;SDS011;60679;48.888;15.544;2022-11-25T04:53:42;2.77;;;0.73;;
72635;SDS011;60679;48.888;15.544;2022-11-25T04:56:10;1.90;;;0.40;;
72635;SDS011;60679;48.888;15.544;2022-11-25T04:58:41;2.30;;;0.50;;
72635;SDS011;60679;48.888;15.544;2022-11-25T05:01:25;2.67;;;1.25;;
72635;SDS011;60679;48.888;15.544;2022-11-25T05:03:58;2.10;;;0.40;;
72635;SDS011;60679;48.888;15.544;2022-11-25T05:06:24;2.70;;;0.40;;
72635;SDS011;60679;48.888;15.544;2022-11-25T05:08:49;2.30;;;0.50;;
72635;SDS011;60679;48.888;15.544;2022-11-25T05:11:15;2.08;;;0.45;;
72635;SDS011;60679;48.888;15.544;2022-11-25T05:13:41;2.17;;;0.50;;
72635;SDS011;60679;48.888;15.544;2022-11-25T05:16:07;2.80;;;0.88;;
72635;SDS011;60679;48.888;15.544;2022-11-25T05:18:32;2.70;;;1.00;;
72635;SDS011;60679;48.888;15.544;2022-11-25T05:21:01;2.05;;;0.50;;
72635;SDS011;60679;48.888;15.544;2022-11-25T05:23:28;2.70;;;0.63;;
72635;SDS011;60679;48.888;15.544;2022-11-25T05:26:01;3.83;;;2.00;;
72635;SDS011;60679;48.888;15.544;2022-11-25T05:28:27;2.60;;;0.60;;
72635;SDS011;60679;48.888;15.544;2022-11-25T05:30:56;2.00;;;0.30;;
72635;SDS011;60679;48.888;15.544;2022-11-25T05:33:22;2.08;;;0.40;;
72635;SDS011;60679;48.888;15.544;2022-11-25T05:35:54;2.83;;;1.17;;
72635;SDS011;60679;48.888;15.544;2022-11-25T05:38:29;2.07;;;0.37;;
72635;SDS011;60679;48.888;15.544;2022-11-25T05:41:02;3.25;;;0.80;;
72635;SDS011;60679;48.888;15.544;2022-11-25T05:43:29;2.38;;;0.43;;
72635;SDS011;60679;48.888;15.544;2022-11-25T05:45:55;2.63;;;0.57;;
72635;SDS011;60679;48.888;15.544;2022-11-25T05:48:29;2.45;;;0.50;;
72635;SDS011;60679;48.888;15.544;2022-11-25T05:50:57;1.87;;;0.30;;
72635;SDS011;60679;48.888;15.544;2022-11-25T05:53:24;2.38;;;0.52;;
72635;SDS011;60679;48.888;15.544;2022-11-25T05:56:00;2.37;;;0.47;;
72635;SDS011;60679;48.888;15.544;2022-11-25T05:58:28;2.25;;;0.52;;
72635;SDS011;60679;48.888;15.544;2022-11-25T06:00:54;3.22;;;1.10;;
72635;SDS011;60679;48.888;15.544;2022-11-25T06:03:27;2.08;;;0.40;;
72635;SDS011;60679;48.888;15.544;2022-11-25T06:09:15;2.22;;;0.60;;
72635;SDS011;60679;48.888;15.544;2022-11-25T06:11:40;2.33;;;0.52;;
72635;SDS011;60679;48.888;15.544;2022-11-25T06:14:05;2.05;;;0.38;;
72635;SDS011;60679;48.888;15.544;2022-11-25T06:16:31;4.07;;;1.10;;
72635;SDS011;60679;48.888;15.544;2022-11-25T06:25:40;2.08;;;0.40;;
72635;SDS011;60679;48.888;15.544;2022-11-25T06:28:05;2.30;;;0.60;;
72635;SDS011;60679;48.888;15.544;2022-11-25T06:30:31;2.83;;;1.27;;
72635;SDS011;60679;48.888;15.544;2022-11-25T06:32:56;2.15;;;0.45;;
72635;SDS011;60679;48.888;15.544;2022-11-25T06:35:21;2.60;;;0.50;;
72635;SDS011;60679;48.888;15.544;2022-11-25T06:37:47;3.80;;;0.70;;
72635;SDS011;60679;48.888;15.544;2022-11-25T06:40:12;3.00;;;1.13;;
72635;SDS011;60679;48.888;15.544;2022-11-25T06:42:39;2.20;;;0.50;;
72635;SDS011;60679;48.888;15.544;2022-11-25T06:45:07;2.72;;;0.75;;
72635;SDS011;60679;48.888;15.544;2022-11-25T06:47:33;2.65;;;0.70;;
72635;SDS011;60679;48.888;15.544;2022-11-25T06:49:58;2.47;;;0.60;;
72635;SDS011;60679;48.888;15.544;2022-11-25T06:52:23;2.40;;;0.43;;
72635;SDS011;60679;48.888;15.544;2022-11-25T06:54:49;2.47;;;0.50;;
72635;SDS011;60679;48.888;15.544;2022-11-25T06:57:16;2.57;;;0.57;;
72635;SDS011;60679;48.888;15.544;2022-11-25T06:59:42;2.95;;;0.85;;
72635;SDS011;60679;48.888;15.544;2022-11-25T07:02:08;2.67;;;0.70;;
72635;SDS011;60679;48.888;15.544;2022-11-25T07:04:35;2.60;;;0.52;;
72635;SDS011;60679;48.888;15.544;2022-11-25T07:07:01;2.63;;;0.70;;
72635;SDS011;60679;48.888;15.544;2022-11-25T07:09:27;3.55;;;1.45;;
72635;SDS011;60679;48.888;15.544;2022-11-25T07:11:52;2.80;;;0.73;;
72635;SDS011;60679;48.888;15.544;2022-11-25T07:14:17;3.57;;;1.13;;
72635;SDS011;60679;48.888;15.544;2022-11-25T07:16:43;2.57;;;0.57;;
72635;SDS011;60679;48.888;15.544;2022-11-25T07:19:10;3.08;;;0.93;;
72635;SDS011;60679;48.888;15.544;2022-11-25T07:21:37;2.88;;;0.80;;
72635;SDS011;60679;48.888;15.544;2022-11-25T07:24:03;2.70;;;0.63;;
72635;SDS011;60679;48.888;15.544;2022-11-25T07:26:34;2.70;;;0.60;;
72635;SDS011;60679;48.888;15.544;2022-11-25T07:29:03;3.03;;;0.90;;
72635;SDS011;60679;48.888;15.544;2022-11-25T07:31:32;2.72;;;0.65;;
72635;SDS011;60679;48.888;15.544;2022-11-25T07:34:03;3.00;;;0.80;;
72635;SDS011;60679;48.888;15.544;2022-11-25T07:36:29;2.80;;;0.60;;
72635;SDS011;60679;48.888;15.544;2022-11-25T07:38:56;2.83;;;0.63;;
72635;SDS011;60679;48.888;15.544;2022-11-25T07:41:23;2.97;;;0.85;;
72635;SDS011;60679;48.888;15.544;2022-11-25T07:43:51;3.15;;;0.75;;
72635;SDS011;60679;48.888;15.544;2022-11-25T07:46:23;3.15;;;0.77;;
72635;SDS011;60679;48.888;15.544;2022-11-25T07:48:54;2.90;;;0.50;;
72635;SDS011;60679;48.888;15.544;2022-11-25T07:51:28;3.20;;;0.70;;
72635;SDS011;60679;48.888;15.544;2022-11-25T07:53:56;3.40;;;1.00;;
72635;SDS011;60679;48.888;15.544;2022-11-25T07:56:23;3.20;;;0.90;;
72635;SDS011;60679;48.888;15.544;2022-11-25T07:58:49;3.40;;;1.02;;
72635;SDS011;60679;48.888;15.544;2022-11-25T08:01:14;3.30;;;0.80;;
72635;SDS011;60679;48.888;15.544;2022-11-25T08:03:42;3.38;;;0.98;;
72635;SDS011;60679;48.888;15.544;2022-11-25T08:06:09;14.97;;;1.30;;
72635;SDS011;60679;48.888;15.544;2022-11-25T08:08:40;3.30;;;0.85;;
72635;SDS011;60679;48.888;15.544;2022-11-25T08:11:07;4.78;;;1.40;;
72635;SDS011;60679;48.888;15.544;2022-11-25T08:13:33;3.20;;;0.80;;
72635;SDS011;60679;48.888;15.544;2022-11-25T08:15:59;3.30;;;0.88;;
72635;SDS011;60679;48.888;15.544;2022-11-25T08:18:25;3.40;;;1.00;;
72635;SDS011;60679;48.888;15.544;2022-11-25T08:20:51;4.07;;;1.17;;
72635;SDS011;60679;48.888;15.544;2022-11-25T08:23:22;3.70;;;1.00;;
72635;SDS011;60679;48.888;15.544;2022-11-25T08:25:47;3.40;;;0.90;;
72635;SDS011;60679;48.888;15.544;2022-11-25T08:28:12;3.40;;;0.90;;
72635;SDS011;60679;48.888;15.544;2022-11-25T08:30:38;3.40;;;0.97;;
72635;SDS011;60679;48.888;15.544;2022-11-25T08:33:03;4.73;;;1.30;;
72635;SDS011;60679;48.888;15.544;2022-11-25T08:35:31;3.75;;;1.30;;
72635;SDS011;60679;48.888;15.544;2022-11-25T08:38:02;3.50;;;1.10;;
72635;SDS011;60679;48.888;15.544;2022-11-25T08:40:28;3.40;;;1.03;;
72635;SDS011;60679;48.888;15.544;2022-11-25T08:42:53;4.23;;;1.70;;
72635;SDS011;60679;48.888;15.544;2022-11-25T08:45:19;4.22;;;1.65;;
72635;SDS011;60679;48.888;15.544;2022-11-25T08:47:44;3.50;;;1.00;;
72635;SDS011;60679;48.888;15.544;2022-11-25T08:50:12;3.40;;;1.13;;
72635;SDS011;60679;48.888;15.544;2022-11-25T08:52:39;3.30;;;1.00;;
72635;SDS011;60679;48.888;15.544;2022-11-25T08:55:04;3.70;;;1.40;;
72635;SDS011;60679;48.888;15.544;2022-11-25T08:57:30;3.75;;;1.63;;
72635;SDS011;60679;48.888;15.544;2022-11-25T08:59:56;3.50;;;1.20;;
72635;SDS011;60679;48.888;15.544;2022-11-25T09:02:21;3.50;;;1.20;;
72635;SDS011;60679;48.888;15.544;2022-11-25T09:04:47;3.50;;;1.27;;
72635;SDS011;60679;48.888;15.544;2022-11-25T09:07:12;3.63;;;1.20;;
72635;SDS011;60679;48.888;15.544;2022-11-25T09:09:37;3.63;;;1.43;;
72635;SDS011;60679;48.888;15.544;2022-11-25T09:12:03;4.10;;;1.83;;
72635;SDS011;60679;48.888;15.544;2022-11-25T09:14:28;4.17;;;2.07;;
72635;SDS011;60679;48.888;15.544;2022-11-25T09:16:54;3.77;;;1.37;;
72635;SDS011;60679;48.888;15.544;2022-11-25T09:19:21;3.90;;;1.77;;
72635;SDS011;60679;48.888;15.544;2022-11-25T09:21:47;3.90;;;1.30;;
72635;SDS011;60679;48.888;15.544;2022-11-25T09:24:13;3.40;;;1.10;;
72635;SDS011;60679;48.888;15.544;2022-11-25T09:26:38;3.97;;;1.40;;
72635;SDS011;60679;48.888;15.544;2022-11-25T09:29:05;3.60;;;1.42;;
72635;SDS011;60679;48.888;15.544;2022-11-25T09:31:30;3.70;;;1.40;;
72635;SDS011;60679;48.888;15.544;2022-11-25T09:33:56;5.55;;;1.92;;
72635;SDS011;60679;48.888;15.544;2022-11-25T09:36:22;3.70;;;1.63;;
72635;SDS011;60679;48.888;15.544;2022-11-25T09:38:49;3.80;;;1.60;;
72635;SDS011;60679;48.888;15.544;2022-11-25T09:43:52;3.63;;;1.57;;
72635;SDS011;60679;48.888;15.544;2022-11-25T09:46:48;3.50;;;1.30;;
72635;SDS011;60679;48.888;15.544;2022-11-25T09:49:29;3.70;;;1.63;;
72635;SDS011;60679;48.888;15.544;2022-11-25T09:52:14;4.07;;;1.67;;
72635;SDS011;60679;48.888;15.544;2022-11-25T09:55:10;3.60;;;1.45;;
72635;SDS011;60679;48.888;15.544;2022-11-25T10:00:24;3.90;;;1.83;;
72635;SDS011;60679;48.888;15.544;2022-11-25T10:06:07;3.70;;;1.43;;
72635;SDS011;60679;48.888;15.544;2022-11-25T10:08:49;3.65;;;1.63;;
72635;SDS011;60679;48.888;15.544;2022-11-25T10:24:57;5.60;;;1.90;;
72635;SDS011;60679;48.888;15.544;2022-11-25T10:27:27;3.78;;;1.67;;
72635;SDS011;60679;48.888;15.544;2022-11-25T10:30:23;3.95;;;2.17;;
72635;SDS011;60679;48.888;15.544;2022-11-25T10:33:08;3.90;;;2.00;;
72635;SDS011;60679;48.888;15.544;2022-11-25T10:36:08;4.47;;;1.80;;
72635;SDS011;60679;48.888;15.544;2022-11-25T10:38:48;3.60;;;1.33;;
72635;SDS011;60679;48.888;15.544;2022-11-25T10:41:22;4.78;;;1.45;;
72635;SDS011;60679;48.888;15.544;2022-11-25T10:43:51;8.38;;;2.28;;
72635;SDS011;60679;48.888;15.544;2022-11-25T10:49:12;4.00;;;1.90;;
72635;SDS011;60679;48.888;15.544;2022-11-25T10:54:17;3.70;;;1.48;;
72635;SDS011;60679;48.888;15.544;2022-11-25T11:01:51;4.00;;;2.10;;
72635;SDS011;60679;48.888;15.544;2022-11-25T11:04:17;5.60;;;2.47;;
72635;SDS011;60679;48.888;15.544;2022-11-25T11:06:47;4.38;;;1.90;;
72635;SDS011;60679;48.888;15.544;2022-11-25T11:14:46;4.20;;;2.17;;
72635;SDS011;60679;48.888;15.544;2022-11-25T11:22:33;5.25;;;2.58;;
72635;SDS011;60679;48.888;15.544;2022-11-25T11:27:43;4.50;;;2.90;;
72635;SDS011;60679;48.888;15.544;2022-11-25T11:30:19;4.10;;;2.30;;
72635;SDS011;60679;48.888;15.544;2022-11-25T11:32:57;4.63;;;2.53;;
72635;SDS011;60679;48.888;15.544;2022-11-25T11:40:45;4.60;;;3.07;;
72635;SDS011;60679;48.888;15.544;2022-11-25T11:59:54;4.15;;;2.40;;
72635;SDS011;60679;48.888;15.544;2022-11-25T12:02:44;4.45;;;2.60;;
72635;SDS011;60679;48.888;15.544;2022-11-25T12:05:17;4.00;;;2.40;;
72635;SDS011;60679;48.888;15.544;2022-11-25T12:15:59;4.43;;;2.70;;
72635;SDS011;60679;48.888;15.544;2022-11-25T12:18:46;4.15;;;2.13;;
72635;SDS011;60679;48.888;15.544;2022-11-25T12:26:59;3.70;;;1.55;;
72635;SDS011;60679;48.888;15.544;2022-11-25T12:35:04;4.77;;;2.80;;
72635;SDS011;60679;48.888;15.544;2022-11-25T12:40:19;3.95;;;2.10;;
72635;SDS011;60679;48.888;15.544;2022-11-25T12:42:55;3.35;;;0.80;;
72635;SDS011;60679;48.888;15.544;2022-11-25T12:45:37;4.00;;;1.55;;
72635;SDS011;60679;48.888;15.544;2022-11-25T12:48:04;3.50;;;1.10;;
72635;SDS011;60679;48.888;15.544;2022-11-25T12:50:45;5.70;;;2.30;;
72635;SDS011;60679;48.888;15.544;2022-11-25T12:53:29;4.35;;;1.75;;
72635;SDS011;60679;48.888;15.544;2022-11-25T12:56:03;4.23;;;1.30;;
72635;SDS011;60679;48.888;15.544;2022-11-25T13:04:52;3.70;;;1.60;;
72635;SDS011;60679;48.888;15.544;2022-11-25T13:07:52;3.78;;;1.52;;
72635;SDS011;60679;48.888;15.544;2022-11-25T13:10:22;4.07;;;2.03;;
72635;SDS011;60679;48.888;15.544;2022-11-25T13:18:13;3.50;;;1.10;;
72635;SDS011;60679;48.888;15.544;2022-11-25T13:20:45;4.18;;;1.20;;
72635;SDS011;60679;48.888;15.544;2022-11-25T13:25:42;3.37;;;0.90;;
72635;SDS011;60679;48.888;15.544;2022-11-25T13:31:30;3.75;;;1.23;;
72635;SDS011;60679;48.888;15.544;2022-11-25T13:36:24;3.25;;;0.85;;
72635;SDS011;60679;48.888;15.544;2022-11-25T13:39:10;6.87;;;1.60;;
72635;SDS011;60679;48.888;15.544;2022-11-25T13:41:46;3.83;;;1.10;;
72635;SDS011;60679;48.888;15.544;2022-11-25T13:46:55;4.53;;;1.33;;
72635;SDS011;60679;48.888;15.544;2022-11-25T13:52:01;4.00;;;1.33;;
72635;SDS011;60679;48.888;15.544;2022-11-25T13:54:35;4.30;;;2.15;;
72635;SDS011;60679;48.888;15.544;2022-11-25T13:59:37;7.45;;;0.82;;
72635;SDS011;60679;48.888;15.544;2022-11-25T14:10:54;2.88;;;0.80;;
72635;SDS011;60679;48.888;15.544;2022-11-25T14:21:41;4.75;;;1.00;;
72635;SDS011;60679;48.888;15.544;2022-11-25T14:24:33;2.75;;;0.60;;
72635;SDS011;60679;48.888;15.544;2022-11-25T14:27:02;2.75;;;0.80;;
72635;SDS011;60679;48.888;15.544;2022-11-25T14:32:02;2.97;;;0.70;;
72635;SDS011;60679;48.888;15.544;2022-11-25T14:34:33;2.53;;;0.60;;
72635;SDS011;60679;48.888;15.544;2022-11-25T14:37:13;12.88;;;0.80;;
72635;SDS011;60679;48.888;15.544;2022-11-25T14:39:49;3.03;;;0.90;;
72635;SDS011;60679;48.888;15.544;2022-11-25T14:42:21;3.08;;;0.90;;
72635;SDS011;60679;48.888;15.544;2022-11-25T14:44:50;2.63;;;0.70;;
72635;SDS011;60679;48.888;15.544;2022-11-25T14:47:24;2.80;;;0.55;;
72635;SDS011;60679;48.888;15.544;2022-11-25T14:49:52;2.47;;;0.40;;
72635;SDS011;60679;48.888;15.544;2022-11-25T14:52:26;2.40;;;0.47;;
72635;SDS011;60679;48.888;15.544;2022-11-25T14:54:55;2.40;;;0.40;;
72635;SDS011;60679;48.888;15.544;2022-11-25T14:57:26;3.17;;;0.90;;
72635;SDS011;60679;48.888;15.544;2022-11-25T15:00:01;5.07;;;1.13;;
72635;SDS011;60679;48.888;15.544;2022-11-25T15:02:30;2.70;;;0.60;;
72635;SDS011;60679;48.888;15.544;2022-11-25T15:07:43;3.58;;;0.95;;
72635;SDS011;60679;48.888;15.544;2022-11-25T15:10:32;2.87;;;0.80;;
72635;SDS011;60679;48.888;15.544;2022-11-25T15:13:23;2.40;;;0.50;;
72635;SDS011;60679;48.888;15.544;2022-11-25T15:15:54;2.72;;;0.70;;
72635;SDS011;60679;48.888;15.544;2022-11-25T15:18:28;2.92;;;0.70;;
72635;SDS011;60679;48.888;15.544;2022-11-25T15:20:57;3.13;;;0.67;;
72635;SDS011;60679;48.888;15.544;2022-11-25T15:23:27;2.40;;;0.40;;
72635;SDS011;60679;48.888;15.544;2022-11-25T15:25:59;3.03;;;0.70;;
72635;SDS011;60679;48.888;15.544;2022-11-25T15:28:26;2.92;;;0.80;;
72635;SDS011;60679;48.888;15.544;2022-11-25T15:30:58;2.65;;;0.73;;
72635;SDS011;60679;48.888;15.544;2022-11-25T15:33:25;3.90;;;1.00;;
72635;SDS011;60679;48.888;15.544;2022-11-25T15:35:52;2.70;;;0.60;;
72635;SDS011;60679;48.888;15.544;2022-11-25T15:38:18;3.50;;;1.10;;
72635;SDS011;60679;48.888;15.544;2022-11-25T15:40:59;3.13;;;1.05;;
72635;SDS011;60679;48.888;15.544;2022-11-25T15:43:26;3.93;;;1.00;;
72635;SDS011;60679;48.888;15.544;2022-11-25T15:45:55;3.05;;;0.73;;
72635;SDS011;60679;48.888;15.544;2022-11-25T15:50:56;4.15;;;1.45;;
72635;SDS011;60679;48.888;15.544;2022-11-25T15:53:43;2.83;;;0.82;;
72635;SDS011;60679;48.888;15.544;2022-11-25T15:56:11;3.07;;;0.87;;
72635;SDS011;60679;48.888;15.544;2022-11-25T15:58:44;4.40;;;1.33;;
72635;SDS011;60679;48.888;15.544;2022-11-25T16:03:42;2.83;;;0.57;;
72635;SDS011;60679;48.888;15.544;2022-11-25T16:08:54;2.90;;;0.82;;
72635;SDS011;60679;48.888;15.544;2022-11-25T16:11:21;3.53;;;0.77;;
72635;SDS011;60679;48.888;15.544;2022-11-25T16:13:49;6.30;;;1.55;;
72635;SDS011;60679;48.888;15.544;2022-11-25T16:16:17;3.17;;;1.30;;
72635;SDS011;60679;48.888;15.544;2022-11-25T16:29:16;3.00;;;0.98;;
72635;SDS011;60679;48.888;15.544;2022-11-25T16:31:43;2.95;;;0.80;;
72635;SDS011;60679;48.888;15.544;2022-11-25T16:34:27;3.27;;;1.20;;
72635;SDS011;60679;48.888;15.544;2022-11-25T16:36:52;3.40;;;1.40;;
72635;SDS011;60679;48.888;15.544;2022-11-25T16:39:18;2.93;;;1.00;;
72635;SDS011;60679;48.888;15.544;2022-11-25T16:41:46;2.75;;;0.70;;
72635;SDS011;60679;48.888;15.544;2022-11-25T16:44:19;2.95;;;1.10;;
72635;SDS011;60679;48.888;15.544;2022-11-25T16:46:47;4.13;;;1.98;;
72635;SDS011;60679;48.888;15.544;2022-11-25T16:49:13;5.63;;;1.00;;
72635;SDS011;60679;48.888;15.544;2022-11-25T16:51:39;3.78;;;1.75;;
72635;SDS011;60679;48.888;15.544;2022-11-25T16:54:05;5.57;;;2.42;;
72635;SDS011;60679;48.888;15.544;2022-11-25T16:56:32;2.40;;;0.50;;
72635;SDS011;60679;48.888;15.544;2022-11-25T16:58:59;5.25;;;2.85;;
72635;SDS011;60679;48.888;15.544;2022-11-25T17:01:25;4.57;;;2.00;;
72635;SDS011;60679;48.888;15.544;2022-11-25T17:03:52;3.80;;;1.38;;
72635;SDS011;60679;48.888;15.544;2022-11-25T17:06:18;2.50;;;0.50;;
72635;SDS011;60679;48.888;15.544;2022-11-25T17:08:46;6.93;;;0.60;;
72635;SDS011;60679;48.888;15.544;2022-11-25T17:11:23;3.60;;;1.07;;
72635;SDS011;60679;48.888;15.544;2022-11-25T17:13:54;3.42;;;1.48;;
72635;SDS011;60679;48.888;15.544;2022-11-25T17:16:22;3.83;;;1.63;;
72635;SDS011;60679;48.888;15.544;2022-11-25T17:18:51;2.53;;;0.65;;
72635;SDS011;60679;48.888;15.544;2022-11-25T17:21:18;2.72;;;0.57;;
72635;SDS011;60679;48.888;15.544;2022-11-25T17:23:48;7.60;;;1.00;;
72635;SDS011;60679;48.888;15.544;2022-11-25T17:26:17;2.80;;;0.77;;
72635;SDS011;60679;48.888;15.544;2022-11-25T17:28:47;3.08;;;1.05;;
72635;SDS011;60679;48.888;15.544;2022-11-25T17:31:18;3.15;;;1.17;;
72635;SDS011;60679;48.888;15.544;2022-11-25T17:33:45;5.85;;;2.28;;
72635;SDS011;60679;48.888;15.544;2022-11-25T17:36:11;3.00;;;0.88;;
72635;SDS011;60679;48.888;15.544;2022-11-25T17:38:36;3.53;;;1.13;;